sensor_id;sensor_type;location;lat;lon;timestamp;temperature;humidity
68433;DHT22;55412;51.350;17.056;2022-07-10T00:00:42;15.60;74.10
68433;DHT22;55412;51.350;17.056;2022-07-10T00:03:08;15.50;74.30
68433;DHT22;55412;51.350;17.056;2022-07-10T00:05:35;15.50;74.50
68433;DHT22;55412;51.350;17.056;2022-07-10T00:08:01;15.50;74.50
68433;DHT22;55412;51.350;17.056;2022-07-10T00:10:28;15.40;74.80
68433;DHT22;55412;51.350;17.056;2022-07-10T00:12:55;15.40;74.70
68433;DHT22;55412;51.350;17.056;2022-07-10T00:15:21;15.30;74.80
68433;DHT22;55412;51.350;17.056;2022-07-10T00:17:47;15.30;74.70
68433;DHT22;55412;51.350;17.056;2022-07-10T00:20:14;15.30;74.80
68433;DHT22;55412;51.350;17.056;2022-07-10T00:22:40;15.20;74.80
68433;DHT22;55412;51.350;17.056;2022-07-10T00:25:11;15.10;74.80
68433;DHT22;55412;51.350;17.056;2022-07-10T00:27:39;15.10;75.00
68433;DHT22;55412;51.350;17.056;2022-07-10T00:30:07;15.00;75.40
68433;DHT22;55412;51.350;17.056;2022-07-10T00:32:35;14.90;75.50
68433;DHT22;55412;51.350;17.056;2022-07-10T00:35:01;14.90;75.60
68433;DHT22;55412;51.350;17.056;2022-07-10T00:37:27;14.90;75.70
68433;DHT22;55412;51.350;17.056;2022-07-10T00:39:54;14.80;75.90
68433;DHT22;55412;51.350;17.056;2022-07-10T00:42:20;14.70;75.90
68433;DHT22;55412;51.350;17.056;2022-07-10T00:44:47;14.70;75.80
68433;DHT22;55412;51.350;17.056;2022-07-10T00:47:13;14.60;75.90
68433;DHT22;55412;51.350;17.056;2022-07-10T00:49:43;14.60;75.90
68433;DHT22;55412;51.350;17.056;2022-07-10T00:52:13;14.60;76.00
68433;DHT22;55412;51.350;17.056;2022-07-10T00:54:44;14.50;76.30
68433;DHT22;55412;51.350;17.056;2022-07-10T00:57:13;14.50;76.20
68433;DHT22;55412;51.350;17.056;2022-07-10T00:59:43;14.40;76.60
68433;DHT22;55412;51.350;17.056;2022-07-10T01:02:10;14.40;76.50
68433;DHT22;55412;51.350;17.056;2022-07-10T01:04:37;14.40;76.70
68433;DHT22;55412;51.350;17.056;2022-07-10T01:07:03;14.40;76.80
68433;DHT22;55412;51.350;17.056;2022-07-10T01:09:30;14.30;76.90
68433;DHT22;55412;51.350;17.056;2022-07-10T01:11:56;14.30;77.20
68433;DHT22;55412;51.350;17.056;2022-07-10T01:14:25;14.20;77.40
68433;DHT22;55412;51.350;17.056;2022-07-10T01:16:52;14.20;77.50
68433;DHT22;55412;51.350;17.056;2022-07-10T01:19:19;14.10;77.50
68433;DHT22;55412;51.350;17.056;2022-07-10T01:21:45;14.10;77.60
68433;DHT22;55412;51.350;17.056;2022-07-10T01:24:11;14.10;77.50
68433;DHT22;55412;51.350;17.056;2022-07-10T01:26:38;14.10;77.80
68433;DHT22;55412;51.350;17.056;2022-07-10T01:29:09;14.10;77.90
68433;DHT22;55412;51.350;17.056;2022-07-10T01:31:37;14.10;77.90
68433;DHT22;55412;51.350;17.056;2022-07-10T01:34:06;14.10;77.60
68433;DHT22;55412;51.350;17.056;2022-07-10T01:36:33;14.10;77.60
68433;DHT22;55412;51.350;17.056;2022-07-10T01:38:59;14.10;77.50
68433;DHT22;55412;51.350;17.056;2022-07-10T01:41:27;14.10;77.50
68433;DHT22;55412;51.350;17.056;2022-07-10T01:43:53;14.10;77.40
68433;DHT22;55412;51.350;17.056;2022-07-10T01:46:20;14.10;77.30
68433;DHT22;55412;51.350;17.056;2022-07-10T01:48:47;14.00;77.50
68433;DHT22;55412;51.350;17.056;2022-07-10T01:51:13;14.00;77.70
68433;DHT22;55412;51.350;17.056;2022-07-10T01:53:40;13.90;78.20
68433;DHT22;55412;51.350;17.056;2022-07-10T01:56:12;13.90;78.50
68433;DHT22;55412;51.350;17.056;2022-07-10T01:58:39;13.90;78.60
68433;DHT22;55412;51.350;17.056;2022-07-10T02:01:05;13.90;78.70
68433;DHT22;55412;51.350;17.056;2022-07-10T02:03:32;13.90;78.80
68433;DHT22;55412;51.350;17.056;2022-07-10T02:06:17;13.90;78.70
68433;DHT22;55412;51.350;17.056;2022-07-10T02:08:43;14.00;78.80
68433;DHT22;55412;51.350;17.056;2022-07-10T02:11:09;14.00;78.60
68433;DHT22;55412;51.350;17.056;2022-07-10T02:13:38;14.10;78.60
68433;DHT22;55412;51.350;17.056;2022-07-10T02:16:04;14.10;78.30
68433;DHT22;55412;51.350;17.056;2022-07-10T02:18:31;14.10;78.00
68433;DHT22;55412;51.350;17.056;2022-07-10T02:20:58;14.10;77.70
68433;DHT22;55412;51.350;17.056;2022-07-10T02:23:24;14.10;77.40
68433;DHT22;55412;51.350;17.056;2022-07-10T02:25:50;14.10;77.30
68433;DHT22;55412;51.350;17.056;2022-07-10T02:28:16;14.10;77.00
68433;DHT22;55412;51.350;17.056;2022-07-10T02:30:42;14.20;76.40
68433;DHT22;55412;51.350;17.056;2022-07-10T02:33:08;14.20;75.80
68433;DHT22;55412;51.350;17.056;2022-07-10T02:35:34;14.20;75.60
68433;DHT22;55412;51.350;17.056;2022-07-10T02:38:00;14.20;75.30
68433;DHT22;55412;51.350;17.056;2022-07-10T02:40:26;14.20;75.10
68433;DHT22;55412;51.350;17.056;2022-07-10T02:42:52;14.20;74.90
68433;DHT22;55412;51.350;17.056;2022-07-10T02:45:18;14.20;74.90
68433;DHT22;55412;51.350;17.056;2022-07-10T02:47:44;14.20;75.00
68433;DHT22;55412;51.350;17.056;2022-07-10T02:50:10;14.10;74.90
68433;DHT22;55412;51.350;17.056;2022-07-10T02:52:36;14.10;75.10
68433;DHT22;55412;51.350;17.056;2022-07-10T02:55:03;14.10;75.20
68433;DHT22;55412;51.350;17.056;2022-07-10T02:57:29;14.10;75.10
68433;DHT22;55412;51.350;17.056;2022-07-10T02:59:55;14.10;75.00
68433;DHT22;55412;51.350;17.056;2022-07-10T03:02:21;14.10;75.00
68433;DHT22;55412;51.350;17.056;2022-07-10T03:04:47;14.10;74.90
68433;DHT22;55412;51.350;17.056;2022-07-10T03:07:13;14.00;74.90
68433;DHT22;55412;51.350;17.056;2022-07-10T03:09:39;14.00;74.70
68433;DHT22;55412;51.350;17.056;2022-07-10T03:12:05;14.00;74.80
68433;DHT22;55412;51.350;17.056;2022-07-10T03:14:32;14.00;74.90
68433;DHT22;55412;51.350;17.056;2022-07-10T03:16:58;14.00;74.90
68433;DHT22;55412;51.350;17.056;2022-07-10T03:19:24;14.10;74.80
68433;DHT22;55412;51.350;17.056;2022-07-10T03:21:50;14.10;74.60
68433;DHT22;55412;51.350;17.056;2022-07-10T03:24:16;14.10;74.50
68433;DHT22;55412;51.350;17.056;2022-07-10T03:26:43;14.10;74.10
68433;DHT22;55412;51.350;17.056;2022-07-10T03:29:10;14.10;74.20
68433;DHT22;55412;51.350;17.056;2022-07-10T03:31:36;14.10;73.80
68433;DHT22;55412;51.350;17.056;2022-07-10T03:34:02;14.10;73.40
68433;DHT22;55412;51.350;17.056;2022-07-10T03:36:28;14.20;73.30
68433;DHT22;55412;51.350;17.056;2022-07-10T03:38:54;14.20;72.90
68433;DHT22;55412;51.350;17.056;2022-07-10T03:41:20;14.20;72.60
68433;DHT22;55412;51.350;17.056;2022-07-10T03:43:48;14.30;72.80
68433;DHT22;55412;51.350;17.056;2022-07-10T03:46:14;14.30;72.20
68433;DHT22;55412;51.350;17.056;2022-07-10T03:48:40;14.40;71.60
68433;DHT22;55412;51.350;17.056;2022-07-10T03:51:06;14.50;71.30
68433;DHT22;55412;51.350;17.056;2022-07-10T03:53:32;14.60;70.70
68433;DHT22;55412;51.350;17.056;2022-07-10T03:55:58;14.60;70.50
68433;DHT22;55412;51.350;17.056;2022-07-10T03:58:26;14.70;70.20
68433;DHT22;55412;51.350;17.056;2022-07-10T04:00:52;14.70;70.10
68433;DHT22;55412;51.350;17.056;2022-07-10T04:03:18;14.80;69.90
68433;DHT22;55412;51.350;17.056;2022-07-10T04:05:44;14.80;69.30
68433;DHT22;55412;51.350;17.056;2022-07-10T04:08:10;14.80;69.40
68433;DHT22;55412;51.350;17.056;2022-07-10T04:10:36;14.80;69.10
68433;DHT22;55412;51.350;17.056;2022-07-10T04:13:02;14.90;68.90
68433;DHT22;55412;51.350;17.056;2022-07-10T04:15:28;14.90;69.10
68433;DHT22;55412;51.350;17.056;2022-07-10T04:17:55;15.00;68.50
68433;DHT22;55412;51.350;17.056;2022-07-10T04:20:21;15.10;68.20
68433;DHT22;55412;51.350;17.056;2022-07-10T04:22:47;15.10;68.20
68433;DHT22;55412;51.350;17.056;2022-07-10T04:25:13;15.20;68.00
68433;DHT22;55412;51.350;17.056;2022-07-10T04:27:40;15.20;68.00
68433;DHT22;55412;51.350;17.056;2022-07-10T04:30:06;15.20;67.50
68433;DHT22;55412;51.350;17.056;2022-07-10T04:32:33;15.30;66.50
68433;DHT22;55412;51.350;17.056;2022-07-10T04:34:59;15.30;66.60
68433;DHT22;55412;51.350;17.056;2022-07-10T04:37:26;15.30;66.10
68433;DHT22;55412;51.350;17.056;2022-07-10T04:39:53;15.30;66.40
68433;DHT22;55412;51.350;17.056;2022-07-10T04:42:19;15.30;66.10
68433;DHT22;55412;51.350;17.056;2022-07-10T04:44:45;15.30;65.90
68433;DHT22;55412;51.350;17.056;2022-07-10T04:47:12;15.20;65.90
68433;DHT22;55412;51.350;17.056;2022-07-10T04:49:38;15.20;66.10
68433;DHT22;55412;51.350;17.056;2022-07-10T04:52:04;15.30;66.50
68433;DHT22;55412;51.350;17.056;2022-07-10T04:54:31;15.30;66.50
68433;DHT22;55412;51.350;17.056;2022-07-10T04:56:57;15.30;66.30
68433;DHT22;55412;51.350;17.056;2022-07-10T04:59:23;15.40;66.50
68433;DHT22;55412;51.350;17.056;2022-07-10T05:01:49;15.40;66.70
68433;DHT22;55412;51.350;17.056;2022-07-10T05:04:15;15.50;66.90
68433;DHT22;55412;51.350;17.056;2022-07-10T05:06:41;15.50;66.80
68433;DHT22;55412;51.350;17.056;2022-07-10T05:09:07;15.60;66.70
68433;DHT22;55412;51.350;17.056;2022-07-10T05:11:34;15.60;66.90
68433;DHT22;55412;51.350;17.056;2022-07-10T05:14:00;15.70;66.90
68433;DHT22;55412;51.350;17.056;2022-07-10T05:16:26;15.80;66.90
68433;DHT22;55412;51.350;17.056;2022-07-10T05:18:52;15.80;65.90
68433;DHT22;55412;51.350;17.056;2022-07-10T05:21:17;15.80;65.20
68433;DHT22;55412;51.350;17.056;2022-07-10T05:23:44;15.80;64.90
68433;DHT22;55412;51.350;17.056;2022-07-10T05:26:10;15.80;64.70
68433;DHT22;55412;51.350;17.056;2022-07-10T05:28:36;15.80;64.60
68433;DHT22;55412;51.350;17.056;2022-07-10T05:31:02;15.80;63.40
68433;DHT22;55412;51.350;17.056;2022-07-10T05:33:28;15.90;63.70
68433;DHT22;55412;51.350;17.056;2022-07-10T05:35:55;16.00;63.40
68433;DHT22;55412;51.350;17.056;2022-07-10T05:38:21;16.00;63.10
68433;DHT22;55412;51.350;17.056;2022-07-10T05:40:47;16.00;61.00
68433;DHT22;55412;51.350;17.056;2022-07-10T05:43:14;16.00;61.20
68433;DHT22;55412;51.350;17.056;2022-07-10T05:45:40;16.10;60.80
68433;DHT22;55412;51.350;17.056;2022-07-10T05:48:06;16.10;60.30
68433;DHT22;55412;51.350;17.056;2022-07-10T05:50:32;16.10;60.90
68433;DHT22;55412;51.350;17.056;2022-07-10T05:52:58;16.10;60.70
68433;DHT22;55412;51.350;17.056;2022-07-10T05:55:25;16.10;60.50
68433;DHT22;55412;51.350;17.056;2022-07-10T05:57:51;16.20;60.40
68433;DHT22;55412;51.350;17.056;2022-07-10T06:00:17;16.20;59.80
68433;DHT22;55412;51.350;17.056;2022-07-10T06:02:43;16.20;59.20
68433;DHT22;55412;51.350;17.056;2022-07-10T06:05:09;16.10;58.90
68433;DHT22;55412;51.350;17.056;2022-07-10T06:07:35;16.10;59.20
68433;DHT22;55412;51.350;17.056;2022-07-10T06:10:02;16.20;59.20
68433;DHT22;55412;51.350;17.056;2022-07-10T06:12:29;16.20;59.20
68433;DHT22;55412;51.350;17.056;2022-07-10T06:14:56;16.30;59.10
68433;DHT22;55412;51.350;17.056;2022-07-10T06:17:22;16.40;58.60
68433;DHT22;55412;51.350;17.056;2022-07-10T06:19:48;16.50;58.40
68433;DHT22;55412;51.350;17.056;2022-07-10T06:22:14;16.50;58.40
68433;DHT22;55412;51.350;17.056;2022-07-10T06:25:00;16.60;58.40
68433;DHT22;55412;51.350;17.056;2022-07-10T06:27:27;16.70;58.70
68433;DHT22;55412;51.350;17.056;2022-07-10T06:29:54;16.80;58.40
68433;DHT22;55412;51.350;17.056;2022-07-10T06:32:21;16.90;57.70
68433;DHT22;55412;51.350;17.056;2022-07-10T06:34:47;17.00;57.90
68433;DHT22;55412;51.350;17.056;2022-07-10T06:37:13;17.10;56.80
68433;DHT22;55412;51.350;17.056;2022-07-10T06:39:39;17.10;56.40
68433;DHT22;55412;51.350;17.056;2022-07-10T06:42:06;17.10;56.10
68433;DHT22;55412;51.350;17.056;2022-07-10T06:44:33;17.00;56.30
68433;DHT22;55412;51.350;17.056;2022-07-10T06:46:59;17.00;56.70
68433;DHT22;55412;51.350;17.056;2022-07-10T06:49:46;16.90;56.70
68433;DHT22;55412;51.350;17.056;2022-07-10T06:52:12;16.80;56.70
68433;DHT22;55412;51.350;17.056;2022-07-10T06:54:39;16.80;56.70
68433;DHT22;55412;51.350;17.056;2022-07-10T06:57:05;16.80;57.30
68433;DHT22;55412;51.350;17.056;2022-07-10T06:59:32;16.70;57.10
68433;DHT22;55412;51.350;17.056;2022-07-10T07:01:58;16.70;57.40
68433;DHT22;55412;51.350;17.056;2022-07-10T07:04:24;16.60;57.90
68433;DHT22;55412;51.350;17.056;2022-07-10T07:06:50;16.60;57.00
68433;DHT22;55412;51.350;17.056;2022-07-10T07:09:16;16.50;56.90
68433;DHT22;55412;51.350;17.056;2022-07-10T07:11:42;16.60;57.50
68433;DHT22;55412;51.350;17.056;2022-07-10T07:14:08;16.50;56.20
68433;DHT22;55412;51.350;17.056;2022-07-10T07:16:34;16.60;56.90
68433;DHT22;55412;51.350;17.056;2022-07-10T07:19:05;16.70;57.60
68433;DHT22;55412;51.350;17.056;2022-07-10T07:21:32;16.80;57.20
68433;DHT22;55412;51.350;17.056;2022-07-10T07:24:17;17.00;56.50
68433;DHT22;55412;51.350;17.056;2022-07-10T07:26:46;17.20;55.40
68433;DHT22;55412;51.350;17.056;2022-07-10T07:29:14;17.40;54.80
68433;DHT22;55412;51.350;17.056;2022-07-10T07:31:40;17.50;54.60
68433;DHT22;55412;51.350;17.056;2022-07-10T07:34:07;17.70;54.20
68433;DHT22;55412;51.350;17.056;2022-07-10T07:36:33;18.00;53.80
68433;DHT22;55412;51.350;17.056;2022-07-10T07:38:59;18.30;53.10
68433;DHT22;55412;51.350;17.056;2022-07-10T07:41:25;18.70;53.10
68433;DHT22;55412;51.350;17.056;2022-07-10T07:43:51;19.20;51.10
68433;DHT22;55412;51.350;17.056;2022-07-10T07:46:18;19.70;49.60
68433;DHT22;55412;51.350;17.056;2022-07-10T07:48:45;20.30;49.10
68433;DHT22;55412;51.350;17.056;2022-07-10T07:51:11;20.90;47.50
68433;DHT22;55412;51.350;17.056;2022-07-10T07:53:39;21.30;47.30
68433;DHT22;55412;51.350;17.056;2022-07-10T07:56:05;21.70;46.80
68433;DHT22;55412;51.350;17.056;2022-07-10T07:58:32;21.90;45.30
68433;DHT22;55412;51.350;17.056;2022-07-10T08:00:58;22.00;44.80
68433;DHT22;55412;51.350;17.056;2022-07-10T08:03:25;21.90;45.10
68433;DHT22;55412;51.350;17.056;2022-07-10T08:05:51;22.00;45.30
68433;DHT22;55412;51.350;17.056;2022-07-10T08:08:17;22.30;44.40
68433;DHT22;55412;51.350;17.056;2022-07-10T08:10:43;22.50;44.10
68433;DHT22;55412;51.350;17.056;2022-07-10T08:13:09;22.30;43.70
68433;DHT22;55412;51.350;17.056;2022-07-10T08:15:35;22.10;44.20
68433;DHT22;55412;51.350;17.056;2022-07-10T08:18:02;21.80;46.20
68433;DHT22;55412;51.350;17.056;2022-07-10T08:20:33;21.30;49.00
68433;DHT22;55412;51.350;17.056;2022-07-10T08:22:59;20.50;50.50
68433;DHT22;55412;51.350;17.056;2022-07-10T08:25:27;19.80;52.70
68433;DHT22;55412;51.350;17.056;2022-07-10T08:28:00;19.30;51.40
68433;DHT22;55412;51.350;17.056;2022-07-10T08:30:27;18.90;54.70
68433;DHT22;55412;51.350;17.056;2022-07-10T08:32:53;18.40;55.80
68433;DHT22;55412;51.350;17.056;2022-07-10T08:35:21;18.20;58.60
68433;DHT22;55412;51.350;17.056;2022-07-10T08:37:48;18.20;60.20
68433;DHT22;55412;51.350;17.056;2022-07-10T08:40:15;18.20;59.90
68433;DHT22;55412;51.350;17.056;2022-07-10T08:42:42;18.10;59.00
68433;DHT22;55412;51.350;17.056;2022-07-10T08:45:10;18.20;57.70
68433;DHT22;55412;51.350;17.056;2022-07-10T08:47:40;18.30;58.40
68433;DHT22;55412;51.350;17.056;2022-07-10T08:50:27;18.40;56.50
68433;DHT22;55412;51.350;17.056;2022-07-10T08:53:09;18.50;57.30
68433;DHT22;55412;51.350;17.056;2022-07-10T08:55:39;18.70;57.10
68433;DHT22;55412;51.350;17.056;2022-07-10T08:58:08;19.10;58.40
68433;DHT22;55412;51.350;17.056;2022-07-10T09:00:35;19.50;56.10
68433;DHT22;55412;51.350;17.056;2022-07-10T09:03:01;19.90;54.80
68433;DHT22;55412;51.350;17.056;2022-07-10T09:05:28;20.30;53.30
68433;DHT22;55412;51.350;17.056;2022-07-10T09:07:54;20.60;52.10
68433;DHT22;55412;51.350;17.056;2022-07-10T09:10:25;21.00;50.30
68433;DHT22;55412;51.350;17.056;2022-07-10T09:12:53;21.40;50.70
68433;DHT22;55412;51.350;17.056;2022-07-10T09:15:22;21.60;49.80
68433;DHT22;55412;51.350;17.056;2022-07-10T09:17:50;21.90;48.50
68433;DHT22;55412;51.350;17.056;2022-07-10T09:20:44;22.00;48.40
68433;DHT22;55412;51.350;17.056;2022-07-10T09:23:22;22.20;47.70
68433;DHT22;55412;51.350;17.056;2022-07-10T09:25:52;21.90;48.00
68433;DHT22;55412;51.350;17.056;2022-07-10T09:28:22;21.30;50.60
68433;DHT22;55412;51.350;17.056;2022-07-10T09:30:51;20.70;52.80
68433;DHT22;55412;51.350;17.056;2022-07-10T09:33:35;20.40;53.40
68433;DHT22;55412;51.350;17.056;2022-07-10T09:36:10;20.10;53.80
68433;DHT22;55412;51.350;17.056;2022-07-10T09:41:20;19.90;55.50
68433;DHT22;55412;51.350;17.056;2022-07-10T09:44:00;19.80;55.80
68433;DHT22;55412;51.350;17.056;2022-07-10T09:46:35;19.80;55.00
68433;DHT22;55412;51.350;17.056;2022-07-10T09:49:05;19.90;55.40
68433;DHT22;55412;51.350;17.056;2022-07-10T09:51:43;19.90;54.70
68433;DHT22;55412;51.350;17.056;2022-07-10T09:54:11;20.00;55.20
68433;DHT22;55412;51.350;17.056;2022-07-10T09:56:46;20.20;55.30
68433;DHT22;55412;51.350;17.056;2022-07-10T09:59:15;20.40;55.80
68433;DHT22;55412;51.350;17.056;2022-07-10T10:01:47;20.70;55.10
68433;DHT22;55412;51.350;17.056;2022-07-10T10:04:21;21.00;53.40
68433;DHT22;55412;51.350;17.056;2022-07-10T10:06:54;21.30;54.80
68433;DHT22;55412;51.350;17.056;2022-07-10T10:09:34;21.60;53.80
68433;DHT22;55412;51.350;17.056;2022-07-10T10:12:17;21.90;52.90
68433;DHT22;55412;51.350;17.056;2022-07-10T10:14:48;22.10;51.20
68433;DHT22;55412;51.350;17.056;2022-07-10T10:17:16;22.10;51.30
68433;DHT22;55412;51.350;17.056;2022-07-10T10:19:44;22.10;50.20
68433;DHT22;55412;51.350;17.056;2022-07-10T10:22:30;22.00;50.40
68433;DHT22;55412;51.350;17.056;2022-07-10T10:24:59;22.00;50.20
68433;DHT22;55412;51.350;17.056;2022-07-10T10:27:29;21.90;48.80
68433;DHT22;55412;51.350;17.056;2022-07-10T10:29:56;21.80;48.60
68433;DHT22;55412;51.350;17.056;2022-07-10T10:32:22;21.50;49.00
68433;DHT22;55412;51.350;17.056;2022-07-10T10:34:49;21.20;49.00
68433;DHT22;55412;51.350;17.056;2022-07-10T10:37:41;21.00;48.80
68433;DHT22;55412;51.350;17.056;2022-07-10T10:40:11;20.60;49.20
68433;DHT22;55412;51.350;17.056;2022-07-10T10:42:58;20.30;49.30
68433;DHT22;55412;51.350;17.056;2022-07-10T10:45:34;19.90;50.60
68433;DHT22;55412;51.350;17.056;2022-07-10T10:48:08;19.80;50.80
68433;DHT22;55412;51.350;17.056;2022-07-10T10:50:39;19.80;51.30
68433;DHT22;55412;51.350;17.056;2022-07-10T10:58:40;19.50;52.60
68433;DHT22;55412;51.350;17.056;2022-07-10T11:09:27;19.80;51.50
68433;DHT22;55412;51.350;17.056;2022-07-10T11:12:08;20.00;51.30
68433;DHT22;55412;51.350;17.056;2022-07-10T11:14:40;20.10;50.70
68433;DHT22;55412;51.350;17.056;2022-07-10T11:17:10;20.40;50.20
68433;DHT22;55412;51.350;17.056;2022-07-10T11:19:36;20.60;51.40
68433;DHT22;55412;51.350;17.056;2022-07-10T11:25:18;20.90;49.60
68433;DHT22;55412;51.350;17.056;2022-07-10T11:28:09;20.90;48.40
68433;DHT22;55412;51.350;17.056;2022-07-10T11:31:03;20.80;48.60
68433;DHT22;55412;51.350;17.056;2022-07-10T11:33:42;20.70;48.60
68433;DHT22;55412;51.350;17.056;2022-07-10T11:36:17;20.90;49.00
68433;DHT22;55412;51.350;17.056;2022-07-10T11:38:45;21.00;47.90
68433;DHT22;55412;51.350;17.056;2022-07-10T11:41:20;21.30;47.00
68433;DHT22;55412;51.350;17.056;2022-07-10T11:43:54;21.40;45.10
68433;DHT22;55412;51.350;17.056;2022-07-10T11:46:23;21.50;45.70
68433;DHT22;55412;51.350;17.056;2022-07-10T11:48:51;21.60;46.10
68433;DHT22;55412;51.350;17.056;2022-07-10T11:51:28;21.80;44.90
68433;DHT22;55412;51.350;17.056;2022-07-10T11:54:13;21.90;44.80
68433;DHT22;55412;51.350;17.056;2022-07-10T11:56:52;22.10;45.10
68433;DHT22;55412;51.350;17.056;2022-07-10T11:59:24;22.00;44.60
68433;DHT22;55412;51.350;17.056;2022-07-10T12:01:52;21.80;44.70
68433;DHT22;55412;51.350;17.056;2022-07-10T12:04:20;21.60;44.60
68433;DHT22;55412;51.350;17.056;2022-07-10T12:06:50;21.40;44.80
68433;DHT22;55412;51.350;17.056;2022-07-10T12:09:20;21.20;45.70
68433;DHT22;55412;51.350;17.056;2022-07-10T12:12:03;21.00;44.30
68433;DHT22;55412;51.350;17.056;2022-07-10T12:14:31;20.60;43.70
68433;DHT22;55412;51.350;17.056;2022-07-10T12:16:58;20.40;44.40
68433;DHT22;55412;51.350;17.056;2022-07-10T12:19:45;20.30;44.90
68433;DHT22;55412;51.350;17.056;2022-07-10T12:22:12;20.20;46.30
68433;DHT22;55412;51.350;17.056;2022-07-10T12:24:39;20.20;45.90
68433;DHT22;55412;51.350;17.056;2022-07-10T12:27:06;20.20;45.80
68433;DHT22;55412;51.350;17.056;2022-07-10T12:29:34;20.20;46.60
68433;DHT22;55412;51.350;17.056;2022-07-10T12:32:01;20.30;47.50
68433;DHT22;55412;51.350;17.056;2022-07-10T12:37:07;20.60;46.00
68433;DHT22;55412;51.350;17.056;2022-07-10T12:39:48;20.50;45.50
68433;DHT22;55412;51.350;17.056;2022-07-10T12:42:29;20.50;46.80
68433;DHT22;55412;51.350;17.056;2022-07-10T12:45:10;20.50;46.00
68433;DHT22;55412;51.350;17.056;2022-07-10T12:47:48;20.40;46.20
68433;DHT22;55412;51.350;17.056;2022-07-10T12:50:16;20.30;46.50
68433;DHT22;55412;51.350;17.056;2022-07-10T12:52:46;20.30;46.60
68433;DHT22;55412;51.350;17.056;2022-07-10T12:55:22;20.20;47.10
68433;DHT22;55412;51.350;17.056;2022-07-10T12:57:50;20.20;47.40
68433;DHT22;55412;51.350;17.056;2022-07-10T13:00:22;20.20;47.70
68433;DHT22;55412;51.350;17.056;2022-07-10T13:03:01;20.20;47.60
68433;DHT22;55412;51.350;17.056;2022-07-10T13:05:36;20.20;47.60
68433;DHT22;55412;51.350;17.056;2022-07-10T13:08:20;20.20;47.90
68433;DHT22;55412;51.350;17.056;2022-07-10T13:10:57;20.20;47.70
68433;DHT22;55412;51.350;17.056;2022-07-10T13:13:24;20.30;47.90
68433;DHT22;55412;51.350;17.056;2022-07-10T13:15:50;20.30;48.10
68433;DHT22;55412;51.350;17.056;2022-07-10T13:18:28;20.40;47.90
68433;DHT22;55412;51.350;17.056;2022-07-10T13:20:56;20.50;47.30
68433;DHT22;55412;51.350;17.056;2022-07-10T13:23:24;20.70;45.50
68433;DHT22;55412;51.350;17.056;2022-07-10T13:25:54;20.70;45.10
68433;DHT22;55412;51.350;17.056;2022-07-10T13:28:24;20.90;45.20
68433;DHT22;55412;51.350;17.056;2022-07-10T13:30:50;21.10;46.30
68433;DHT22;55412;51.350;17.056;2022-07-10T13:33:16;21.20;45.60
68433;DHT22;55412;51.350;17.056;2022-07-10T13:35:43;21.30;45.60
68433;DHT22;55412;51.350;17.056;2022-07-10T13:38:09;21.40;45.50
68433;DHT22;55412;51.350;17.056;2022-07-10T13:40:36;21.30;44.20
68433;DHT22;55412;51.350;17.056;2022-07-10T13:43:03;21.10;44.10
68433;DHT22;55412;51.350;17.056;2022-07-10T13:45:30;21.00;44.40
68433;DHT22;55412;51.350;17.056;2022-07-10T13:48:03;20.90;44.80
68433;DHT22;55412;51.350;17.056;2022-07-10T13:50:29;20.80;45.70
68433;DHT22;55412;51.350;17.056;2022-07-10T13:52:55;20.80;45.70
68433;DHT22;55412;51.350;17.056;2022-07-10T13:55:22;20.70;45.70
68433;DHT22;55412;51.350;17.056;2022-07-10T13:57:48;20.70;46.60
68433;DHT22;55412;51.350;17.056;2022-07-10T14:00:14;20.90;45.60
68433;DHT22;55412;51.350;17.056;2022-07-10T14:02:40;21.10;42.80
68433;DHT22;55412;51.350;17.056;2022-07-10T14:05:07;21.30;42.40
68433;DHT22;55412;51.350;17.056;2022-07-10T14:07:35;21.40;42.50
68433;DHT22;55412;51.350;17.056;2022-07-10T14:10:02;21.50;42.10
68433;DHT22;55412;51.350;17.056;2022-07-10T14:12:29;21.60;43.20
68433;DHT22;55412;51.350;17.056;2022-07-10T14:14:55;21.60;42.40
68433;DHT22;55412;51.350;17.056;2022-07-10T14:17:22;21.60;42.90
68433;DHT22;55412;51.350;17.056;2022-07-10T14:19:49;21.60;43.30
68433;DHT22;55412;51.350;17.056;2022-07-10T14:22:16;21.70;43.40
68433;DHT22;55412;51.350;17.056;2022-07-10T14:24:42;21.70;43.70
68433;DHT22;55412;51.350;17.056;2022-07-10T14:27:08;21.70;43.80
68433;DHT22;55412;51.350;17.056;2022-07-10T14:29:36;21.70;44.10
68433;DHT22;55412;51.350;17.056;2022-07-10T14:32:03;21.70;44.30
68433;DHT22;55412;51.350;17.056;2022-07-10T14:34:29;21.70;44.20
68433;DHT22;55412;51.350;17.056;2022-07-10T14:36:56;21.60;44.80
68433;DHT22;55412;51.350;17.056;2022-07-10T14:39:22;21.40;45.00
68433;DHT22;55412;51.350;17.056;2022-07-10T14:41:48;21.20;45.20
68433;DHT22;55412;51.350;17.056;2022-07-10T14:44:14;21.10;45.20
68433;DHT22;55412;51.350;17.056;2022-07-10T14:46:40;21.00;44.40
68433;DHT22;55412;51.350;17.056;2022-07-10T14:49:08;21.10;45.00
68433;DHT22;55412;51.350;17.056;2022-07-10T14:51:35;21.00;44.60
68433;DHT22;55412;51.350;17.056;2022-07-10T14:54:01;20.90;44.50
68433;DHT22;55412;51.350;17.056;2022-07-10T14:56:28;20.80;45.30
68433;DHT22;55412;51.350;17.056;2022-07-10T14:58:54;20.70;45.90
68433;DHT22;55412;51.350;17.056;2022-07-10T15:01:20;20.70;46.50
68433;DHT22;55412;51.350;17.056;2022-07-10T15:03:46;20.80;46.50
68433;DHT22;55412;51.350;17.056;2022-07-10T15:06:13;20.80;46.80
68433;DHT22;55412;51.350;17.056;2022-07-10T15:08:39;20.90;46.40
68433;DHT22;55412;51.350;17.056;2022-07-10T15:11:05;21.00;46.00
68433;DHT22;55412;51.350;17.056;2022-07-10T15:13:32;21.00;45.60
68433;DHT22;55412;51.350;17.056;2022-07-10T15:15:59;21.00;46.00
68433;DHT22;55412;51.350;17.056;2022-07-10T15:18:26;21.00;46.60
68433;DHT22;55412;51.350;17.056;2022-07-10T15:20:52;21.10;46.30
68433;DHT22;55412;51.350;17.056;2022-07-10T15:23:18;21.00;47.00
68433;DHT22;55412;51.350;17.056;2022-07-10T15:25:44;20.90;46.70
68433;DHT22;55412;51.350;17.056;2022-07-10T15:28:10;20.90;47.20
68433;DHT22;55412;51.350;17.056;2022-07-10T15:30:38;20.90;47.20
68433;DHT22;55412;51.350;17.056;2022-07-10T15:33:05;21.00;47.30
68433;DHT22;55412;51.350;17.056;2022-07-10T15:35:32;21.00;46.90
68433;DHT22;55412;51.350;17.056;2022-07-10T15:37:58;21.20;47.50
68433;DHT22;55412;51.350;17.056;2022-07-10T15:40:29;21.30;46.40
68433;DHT22;55412;51.350;17.056;2022-07-10T15:42:56;21.30;45.70
68433;DHT22;55412;51.350;17.056;2022-07-10T15:45:23;21.20;44.70